METAR Reports From Nearby Airports

 

KLUD - Decatur, Texas, USA
Distance from Wildwood: OSO 5mi, 8km
Uppdaterad: Jul 12, 2020 10:55pm
Klart
Klart
 Vind från O
Vind: O 6 mph , 9 km/h
Temperatur: 82°F , 28°C
Heat Index: 86°F , 30°C
Daggpunkt: 72°F , 22°C
Luftfuktighet: 70%
Barometer: 29.90 inHg , 1012.5 hPa
Clouds: Klart
Visibility: 10 miles , 16 km
2020/07/13 03:55 KLUD 130355Z AUTO 09005KT 10SM CLR 28/22 A2990 RMK AO2 T02830222
KXBP - Bridgeport, Texas, USA
Distance from Wildwood: VSV 11mi, 18km
Uppdaterad: Jul 12, 2020 10:55pm
Klart
Klart
 Vind från OSO
Vind: OSO 3 mph , 6 km/h
Temperatur: 82°F , 28°C
Heat Index: 86°F , 30°C
Daggpunkt: 72°F , 22°C
Luftfuktighet: 70%
Barometer: 29.90 inHg , 1012.5 hPa
Clouds: Klart
Visibility: 10 miles , 16 km
2020/07/13 03:55 KXBP 130355Z AUTO 11003KT 10SM CLR 28/22 A2990 RMK AO2 T02820216
 
K0F2 - Bowie, Texas, USA
Distance from Wildwood: NNV 24mi, 39km
Uppdaterad: Jul 12, 2020 10:55pm
Klart
Klart
 Vind från OSO
Vind: OSO 5 mph , 7 km/h
Temperatur: 86°F , 30°C
Heat Index: 95°F , 35°C
Daggpunkt: 75°F , 24°C
Luftfuktighet: 70%
Barometer: 29.89 inHg , 1012.2 hPa
Clouds: Klart
Visibility: 10 miles , 16 km
2020/07/13 03:55 K0F2 130355Z AUTO 11004KT 10SM CLR 30/24 A2989 RMK AO2 T02950240
KDTO - Denton, Texas, USA
Distance from Wildwood: O 27mi, 44km
Uppdaterad: Jul 12, 2020 10:53pm
Klart
Klart
 Vind från OSO
Vind: OSO 3 mph , 6 km/h
Temperatur: 90°F , 32°C
Heat Index: 97°F , 36°C
Daggpunkt: 72°F , 22°C
Luftfuktighet: 55%
Barometer: 29.88 inHg , 1011.9 hPa
Clouds: Klart
Visibility: 10 miles , 16 km
2020/07/13 03:53 KDTO 130353Z AUTO 11003KT 10SM CLR 32/22 A2988 RMK AO2 SLP106 T03170222
 
KAFW - Ft Worth/Allianc, Texas, USA
Distance from Wildwood: SO 29mi, 46km
Uppdaterad: Jul 12, 2020 10:53pm
Few Clouds
Few Clouds
 Vind från OSO
Vind: OSO 7 mph , 11 km/h
Temperatur: 90°F , 32°C
Heat Index: 99°F , 37°C
Daggpunkt: 73°F , 23°C
Luftfuktighet: 59%
Barometer: 29.87 inHg , 1011.5 hPa
Clouds: Few Clouds
Visibility: 10 miles , 16 km
Cloud details: Few Clouds 25000 ft
2020/07/13 03:53 KAFW 130353Z 12006KT 10SM FEW250 32/23 A2987 RMK AO2 SLP096 T03170228
KFTW - Fort Worth, Texas, USA
Distance from Wildwood: SSO 34mi, 55km
Uppdaterad: Jul 12, 2020 10:53pm
Klart
Klart
 Vind från OSO
Vind: OSO 9 mph , 15 km/h
Temperatur: 90°F , 32°C
Heat Index: 99°F , 37°C
Daggpunkt: 73°F , 23°C
Luftfuktighet: 59%
Barometer: 29.86 inHg , 1011.2 hPa
Clouds: Klart
Visibility: 10 miles , 16 km
2020/07/13 03:53 KFTW 130353Z 11008KT 10SM CLR 32/23 A2986 RMK AO2 SLP100 T03170233
 
KNFW - Fort Worth Nas, Texas, USA
Distance from Wildwood: SSO 36mi, 58km
Uppdaterad: Jul 12, 2020 10:52pm
Klart
Klart
 Vind från SO
Vind: SO 8 mph , 13 km/h
Temperatur: 91°F , 33°C
Heat Index: 98°F , 37°C
Daggpunkt: 72°F , 22°C
Luftfuktighet: 52%
Barometer: 29.87 inHg , 1011.5 hPa
Clouds: Klart
Visibility: 10 miles , 16 km
2020/07/13 03:52 KNFW 130352Z AUTO 13007KT 10SM CLR 33/22 A2987 RMK AO2 SLP098 T03330222 VISNO N $
KGLE - Gainesville, Texas, USA
Distance from Wildwood: NO 38mi, 61km
Uppdaterad: Jul 12, 2020 10:55pm
Klart
Klart
 Vind från O
Vind: O 5 mph , 7 km/h
Temperatur: 82°F , 28°C
Heat Index: 86°F , 30°C
Daggpunkt: 72°F , 22°C
Luftfuktighet: 70%
Barometer: 29.91 inHg , 1012.9 hPa
Clouds: Klart
Visibility: 10 miles , 16 km
2020/07/13 03:55 KGLE 130355Z AUTO 09004KT 10SM CLR 28/22 A2991 RMK AO2 T02780221 PWINO
 
KMWL - Mineral Wells, Texas, USA
Distance from Wildwood: SV 41mi, 65km
Uppdaterad: Jul 12, 2020 10:53pm
Klart
Klart
 Vind från SO
Vind: SO 8 mph , 13 km/h
Temperatur: 86°F , 30°C
Heat Index: 92°F , 33°C
Daggpunkt: 72°F , 22°C
Luftfuktighet: 62%
Barometer: 29.86 inHg , 1011.2 hPa
Clouds: Klart
Visibility: 10 miles , 16 km
2020/07/13 03:53 KMWL 130353Z AUTO 13007KT 10SM CLR 30/22 A2986 RMK AO2 SLP095 T03000217 $
KDFW - Dallas/Ft Worth, Texas, USA
Distance from Wildwood: OSO 45mi, 73km
Uppdaterad: Jul 12, 2020 10:53pm
Few Clouds
Few Clouds
 Vind från OSO
Vind: OSO 8 mph , 13 km/h
Temperatur: 88°F , 31°C
Heat Index: 98°F , 37°C
Daggpunkt: 75°F , 24°C
Luftfuktighet: 66%
Barometer: 29.86 inHg , 1011.2 hPa
Clouds: Few Clouds
Visibility: 10 miles , 16 km
Cloud details: Few Clouds 30000 ft
2020/07/13 03:53 KDFW 130353Z 11007KT 10SM FEW300 31/24 A2986 RMK AO2 SLP101 T03110244